createdAt,value
2019-03-13T00:02:12.910Z,0.57
2019-03-13T00:04:42.421Z,0.50
2019-03-13T00:07:11.847Z,1.80
2019-03-13T00:09:41.391Z,0.73
2019-03-13T00:12:10.924Z,2.07
2019-03-13T00:14:40.439Z,0.50
2019-03-13T00:17:09.943Z,0.37
2019-03-13T00:19:39.448Z,3.27
2019-03-13T00:22:11.860Z,0.50
2019-03-13T00:24:41.328Z,0.87
2019-03-13T00:27:10.872Z,1.10
2019-03-13T00:29:40.318Z,0.63
2019-03-13T00:32:12.519Z,0.60
2019-03-13T00:34:42.068Z,0.70
2019-03-13T00:37:11.602Z,0.70
2019-03-13T00:39:41.096Z,0.87
2019-03-13T00:42:10.582Z,0.87
2019-03-13T00:44:40.519Z,1.57
2019-03-13T00:47:09.983Z,0.90
2019-03-13T00:49:39.910Z,0.70
2019-03-13T00:52:09.415Z,1.90
2019-03-13T00:54:39.396Z,1.17
2019-03-13T00:57:08.899Z,0.70
2019-03-13T00:59:38.346Z,0.87
2019-03-13T01:02:29.972Z,0.60
2019-03-13T01:05:21.172Z,1.43
2019-03-13T01:07:50.664Z,0.90
2019-03-13T01:10:20.205Z,1.00
2019-03-13T01:12:49.751Z,1.37
2019-03-13T01:15:19.185Z,0.60
2019-03-13T01:17:49.070Z,2.03
2019-03-13T01:20:18.621Z,1.77
2019-03-13T01:22:48.413Z,0.80
2019-03-13T01:25:17.883Z,0.67
2019-03-13T01:27:47.356Z,0.80
2019-03-13T01:30:17.000Z,0.80
2019-03-13T01:32:49.770Z,1.00
2019-03-13T01:35:22.723Z,2.23
2019-03-13T01:37:52.211Z,0.63
2019-03-13T01:40:21.656Z,3.13
2019-03-13T01:42:51.416Z,0.80
2019-03-13T01:45:20.925Z,1.53
2019-03-13T01:47:50.731Z,1.93
2019-03-13T01:50:20.192Z,1.23
2019-03-13T01:52:50.245Z,0.50
2019-03-13T01:55:20.236Z,1.63
2019-03-13T01:57:49.727Z,1.67
2019-03-13T02:00:19.193Z,0.80
2019-03-13T02:02:48.756Z,1.47
2019-03-13T02:05:18.271Z,0.73
2019-03-13T02:07:48.134Z,1.33
2019-03-13T02:10:17.679Z,0.80
2019-03-13T02:12:47.412Z,1.53
2019-03-13T02:15:18.774Z,2.43
2019-03-13T02:17:48.273Z,0.83
2019-03-13T02:20:17.867Z,1.07
2019-03-13T02:22:50.796Z,2.63
2019-03-13T02:25:20.316Z,1.27
2019-03-13T02:27:49.775Z,0.87
2019-03-13T02:30:20.119Z,0.90
2019-03-13T02:32:49.601Z,5.83
2019-03-13T02:35:19.221Z,0.87
2019-03-13T02:37:49.168Z,1.07
2019-03-13T02:40:18.725Z,0.87
2019-03-13T02:42:48.236Z,2.70
2019-03-13T02:45:17.782Z,1.73
2019-03-13T02:47:47.316Z,1.63
2019-03-13T02:50:17.037Z,2.07
2019-03-13T02:52:46.557Z,1.40
2019-03-13T02:55:16.117Z,1.70
2019-03-13T02:57:45.695Z,1.67
2019-03-13T03:00:17.149Z,2.73
2019-03-13T03:02:49.625Z,1.87
2019-03-13T03:05:19.465Z,2.37
2019-03-13T03:07:48.993Z,2.07
2019-03-13T03:10:19.067Z,0.67
2019-03-13T03:12:48.591Z,1.43
2019-03-13T03:15:19.215Z,3.27
2019-03-13T03:17:48.748Z,4.90
2019-03-13T03:20:19.704Z,2.03
2019-03-13T03:22:49.251Z,1.83
2019-03-13T03:25:19.008Z,2.00
2019-03-13T03:27:48.594Z,2.77
2019-03-13T03:30:20.577Z,1.63
2019-03-13T03:32:50.134Z,6.10
2019-03-13T03:35:19.805Z,5.93
2019-03-13T03:37:49.818Z,3.10
2019-03-13T03:40:22.348Z,2.10
2019-03-13T03:42:50.689Z,2.10
2019-03-13T03:45:20.246Z,1.63
2019-03-13T03:47:49.715Z,2.23
2019-03-13T03:50:19.260Z,2.27
2019-03-13T03:52:48.893Z,3.53
2019-03-13T03:55:18.420Z,2.17
2019-03-13T03:57:47.972Z,4.03
2019-03-13T04:00:17.937Z,2.10
2019-03-13T04:02:47.496Z,2.37
2019-03-13T04:05:17.518Z,1.70
2019-03-13T04:07:47.993Z,2.50
2019-03-13T04:10:17.981Z,1.80
2019-03-13T04:12:47.494Z,2.40
2019-03-13T04:15:17.346Z,1.20
2019-03-13T04:17:46.869Z,2.30
2019-03-13T04:20:16.422Z,1.40
2019-03-13T04:22:45.936Z,3.40
2019-03-13T04:25:30.122Z,5.20
2019-03-13T04:28:00.761Z,2.67
2019-03-13T04:30:30.280Z,2.17
2019-03-13T04:32:59.828Z,1.80
2019-03-13T04:35:29.725Z,1.10
2019-03-13T04:37:59.209Z,2.17
2019-03-13T04:40:28.747Z,2.17
2019-03-13T04:42:58.190Z,0.97
2019-03-13T04:45:27.815Z,6.00
2019-03-13T04:47:57.316Z,3.77
2019-03-13T04:50:26.868Z,2.77
2019-03-13T04:52:56.399Z,2.27
2019-03-13T04:55:26.385Z,3.17
2019-03-13T04:57:55.986Z,2.17
2019-03-13T05:00:25.457Z,3.37
2019-03-13T05:02:55.350Z,2.30
2019-03-13T05:05:59.681Z,2.70
2019-03-13T05:08:45.550Z,2.83
2019-03-13T05:11:12.617Z,3.70
2019-03-13T05:13:42.131Z,3.07
2019-03-13T05:16:11.643Z,3.13
2019-03-13T05:18:41.247Z,1.60
2019-03-13T05:21:10.730Z,2.65
2019-03-13T05:23:40.267Z,3.67
2019-03-13T05:26:09.786Z,7.53
2019-03-13T05:28:39.332Z,5.07
2019-03-13T05:31:08.925Z,3.13
2019-03-13T05:33:38.474Z,4.30
2019-03-13T05:36:08.027Z,6.33
2019-03-13T05:38:37.645Z,5.70
2019-03-13T05:41:07.155Z,6.53
2019-03-13T05:43:36.658Z,4.03
2019-03-13T05:46:06.129Z,5.77
2019-03-13T05:48:35.705Z,5.93
2019-03-13T05:51:05.244Z,8.50
2019-03-13T05:53:34.828Z,4.43
2019-03-13T05:56:04.794Z,6.67
2019-03-13T05:58:34.235Z,5.00
2019-03-13T06:01:03.882Z,4.77
2019-03-13T06:03:33.515Z,4.93
2019-03-13T06:06:02.999Z,4.72
2019-03-13T06:08:32.947Z,6.50
2019-03-13T06:11:02.498Z,5.37
2019-03-13T06:13:31.991Z,4.57
2019-03-13T06:16:01.513Z,3.70
2019-03-13T06:18:31.053Z,7.27
2019-03-13T06:21:00.628Z,4.67
2019-03-13T06:23:30.246Z,8.00
2019-03-13T06:26:00.163Z,5.80
2019-03-13T06:28:29.683Z,6.90
2019-03-13T06:30:59.520Z,6.07
2019-03-13T06:33:28.961Z,7.50
2019-03-13T06:35:58.816Z,6.00
2019-03-13T06:38:28.867Z,7.28
2019-03-13T06:40:58.536Z,6.43
2019-03-13T06:43:28.127Z,5.83
2019-03-13T06:45:57.773Z,5.77
2019-03-13T06:48:27.292Z,8.23
2019-03-13T06:50:56.883Z,5.33
2019-03-13T06:53:26.558Z,8.30
2019-03-13T06:55:56.157Z,8.50
2019-03-13T06:58:40.932Z,9.90
2019-03-13T07:01:29.403Z,8.73
2019-03-13T07:04:27.027Z,8.53
2019-03-13T07:07:06.604Z,8.23
2019-03-13T07:09:44.577Z,5.40
2019-03-13T07:12:27.824Z,7.33
2019-03-13T07:15:35.852Z,6.07
2019-03-13T07:18:16.585Z,9.33
2019-03-13T07:20:57.945Z,7.50
2019-03-13T07:23:46.387Z,5.97
2019-03-13T07:26:33.653Z,8.10
2019-03-13T07:29:25.125Z,7.80
2019-03-13T07:32:07.848Z,4.60
2019-03-13T07:34:47.261Z,4.87
2019-03-13T07:37:35.736Z,13.63
2019-03-13T07:40:27.038Z,6.57
2019-03-13T07:43:13.889Z,7.40
2019-03-13T07:45:56.581Z,8.33
2019-03-13T07:48:39.485Z,6.50
2019-03-13T07:51:39.986Z,8.53
2019-03-13T07:54:21.660Z,7.77
2019-03-13T07:57:01.010Z,7.03
2019-03-13T07:59:47.202Z,10.93
2019-03-13T08:02:41.516Z,6.77
2019-03-13T08:05:36.156Z,6.90
2019-03-13T08:08:24.739Z,6.03
2019-03-13T08:11:13.984Z,6.30
2019-03-13T08:14:05.367Z,9.00
2019-03-13T08:16:59.932Z,7.10
2019-03-13T08:20:06.700Z,5.93
2019-03-13T08:23:07.144Z,10.50
2019-03-13T08:25:47.496Z,7.57
2019-03-13T08:28:41.876Z,5.97
2019-03-13T08:31:33.460Z,10.37
2019-03-13T08:34:28.088Z,5.80
2019-03-13T08:37:34.746Z,8.97
2019-03-13T08:40:19.547Z,6.53
2019-03-13T08:43:13.140Z,3.70
2019-03-13T08:45:55.985Z,5.07
2019-03-13T08:48:36.272Z,5.47
2019-03-13T08:51:16.449Z,7.90
2019-03-13T08:54:00.700Z,8.67
2019-03-13T08:56:36.431Z,8.87
2019-03-13T08:59:12.373Z,5.17
2019-03-13T09:02:06.725Z,9.77
2019-03-13T09:04:55.361Z,11.00
2019-03-13T09:07:49.783Z,7.40
2019-03-13T09:10:40.628Z,4.73
2019-03-13T09:13:20.539Z,8.00
2019-03-13T09:16:10.873Z,4.73
2019-03-13T09:18:55.013Z,4.50
2019-03-13T09:21:52.832Z,6.53
2019-03-13T09:24:50.414Z,5.87
2019-03-13T09:27:47.629Z,7.87
2019-03-13T09:30:34.444Z,6.70
2019-03-13T09:33:41.028Z,5.87
2019-03-13T09:36:18.788Z,6.70
2019-03-13T09:39:13.162Z,5.27
2019-03-13T09:42:10.547Z,5.60
2019-03-13T09:45:13.792Z,6.93
2019-03-13T09:48:01.885Z,4.70
2019-03-13T09:50:56.399Z,8.80
2019-03-13T09:53:30.604Z,4.60
2019-03-13T09:56:17.539Z,8.13
2019-03-13T09:59:04.599Z,5.43
2019-03-13T10:01:56.239Z,5.97
2019-03-13T10:04:56.927Z,8.07
2019-03-13T10:07:37.499Z,6.83
2019-03-13T10:10:21.252Z,4.63
2019-03-13T10:13:15.227Z,6.27
2019-03-13T10:15:56.032Z,7.40
2019-03-13T10:18:38.978Z,6.30
2019-03-13T10:21:23.113Z,7.17
2019-03-13T10:24:07.455Z,7.40
2019-03-13T10:26:54.547Z,6.80
2019-03-13T10:29:32.758Z,7.00
2019-03-13T10:32:24.040Z,10.03
2019-03-13T10:35:21.696Z,8.03
2019-03-13T10:38:12.898Z,8.73
2019-03-13T10:41:02.734Z,7.73
2019-03-13T10:44:06.127Z,9.53
2019-03-13T10:47:12.955Z,8.17
2019-03-13T10:49:50.940Z,6.17
2019-03-13T10:52:27.621Z,8.07
2019-03-13T10:55:18.959Z,5.83
2019-03-13T10:58:06.038Z,6.00
2019-03-13T11:01:06.298Z,7.83
2019-03-13T11:03:53.154Z,8.37
2019-03-13T11:06:54.009Z,5.37
2019-03-13T11:09:21.402Z,5.13
2019-03-13T11:12:12.858Z,8.13
2019-03-13T11:15:01.351Z,6.37
2019-03-13T11:18:01.784Z,5.37
2019-03-13T11:21:05.108Z,6.83
2019-03-13T11:23:49.436Z,4.37
2019-03-13T11:26:43.698Z,6.43
2019-03-13T11:29:20.243Z,5.83
2019-03-13T11:32:10.793Z,6.67
2019-03-13T11:34:53.028Z,7.97
2019-03-13T11:37:47.468Z,10.73
2019-03-13T11:40:41.703Z,8.80
2019-03-13T11:43:45.130Z,6.53
2019-03-13T11:46:32.504Z,8.30
2019-03-13T11:49:19.319Z,9.70
2019-03-13T11:52:13.752Z,9.67
2019-03-13T11:54:53.885Z,6.03
2019-03-13T11:57:41.856Z,7.90
2019-03-13T12:00:31.064Z,9.37
2019-03-13T12:03:10.596Z,9.97
2019-03-13T12:05:51.131Z,7.67
2019-03-13T12:08:45.728Z,9.90
2019-03-13T12:11:33.970Z,7.00
2019-03-13T12:14:19.719Z,7.83
2019-03-13T12:16:54.615Z,9.50
2019-03-13T12:19:31.651Z,10.50
2019-03-13T12:22:26.156Z,6.57
2019-03-13T12:25:08.683Z,10.13
2019-03-13T12:28:02.349Z,9.47
2019-03-13T12:31:03.272Z,6.00
2019-03-13T12:33:40.492Z,6.23
2019-03-13T12:36:42.083Z,7.63
2019-03-13T12:39:39.466Z,5.67
2019-03-13T12:42:27.953Z,8.90
2019-03-13T12:45:15.468Z,5.30
2019-03-13T12:47:51.224Z,5.50
2019-03-13T12:50:34.977Z,8.78
2019-03-13T12:53:35.738Z,6.93
2019-03-13T12:56:12.636Z,5.17
2019-03-13T12:59:15.933Z,3.77
2019-03-13T13:02:13.596Z,5.33
2019-03-13T13:05:10.818Z,6.90
2019-03-13T13:07:59.300Z,5.25
2019-03-13T13:10:46.338Z,4.63
2019-03-13T13:13:30.860Z,8.87
2019-03-13T13:16:34.508Z,6.40
2019-03-13T13:19:04.139Z,6.13
2019-03-13T13:21:33.684Z,4.30
2019-03-13T13:24:03.287Z,6.07
2019-03-13T13:26:32.860Z,5.27
2019-03-13T13:29:02.383Z,3.77
2019-03-13T13:31:31.922Z,5.00
2019-03-13T13:34:01.427Z,4.80
2019-03-13T13:36:30.933Z,6.77
2019-03-13T13:39:00.533Z,3.80
2019-03-13T13:41:30.104Z,3.87
2019-03-13T13:43:59.695Z,5.00
2019-03-13T13:46:31.409Z,3.23
2019-03-13T13:49:00.968Z,8.30
2019-03-13T13:51:32.727Z,4.50
2019-03-13T13:54:01.684Z,3.07
2019-03-13T13:56:31.122Z,3.57
2019-03-13T13:59:00.717Z,4.90
2019-03-13T14:01:30.237Z,3.33
2019-03-13T14:03:59.847Z,2.37
2019-03-13T14:06:29.381Z,2.37
2019-03-13T14:08:59.308Z,4.10
2019-03-13T14:11:28.868Z,3.90
2019-03-13T14:13:58.758Z,1.60
2019-03-13T14:16:28.301Z,4.37
2019-03-13T14:18:57.895Z,2.57
2019-03-13T14:21:27.737Z,5.10
2019-03-13T14:23:57.382Z,3.63
2019-03-13T14:26:26.856Z,5.83
2019-03-13T14:28:56.357Z,2.67
2019-03-13T14:31:27.875Z,6.47
2019-03-13T14:33:57.358Z,5.20
2019-03-13T14:36:26.906Z,3.10
2019-03-13T14:38:56.455Z,3.20
2019-03-13T14:41:26.671Z,4.50
2019-03-13T14:43:56.340Z,5.30
2019-03-13T14:46:25.915Z,4.63
2019-03-13T14:48:55.460Z,6.80
2019-03-13T14:51:25.170Z,4.70
2019-03-13T14:53:54.735Z,3.60
2019-03-13T14:56:24.443Z,2.20
2019-03-13T14:58:53.973Z,8.47
2019-03-13T15:01:23.520Z,8.63
2019-03-13T15:03:53.003Z,4.70
2019-03-13T15:06:22.616Z,3.43
2019-03-13T15:08:52.346Z,3.57
2019-03-13T15:11:21.898Z,6.40
2019-03-13T15:13:51.748Z,4.37
2019-03-13T15:16:21.276Z,3.80
2019-03-13T15:18:50.777Z,3.97
2019-03-13T15:21:20.308Z,4.53
2019-03-13T15:23:49.792Z,5.40
2019-03-13T15:26:19.294Z,6.47
2019-03-13T15:28:48.754Z,5.43
2019-03-13T15:31:18.303Z,3.10
2019-03-13T15:33:47.839Z,5.17
2019-03-13T15:36:17.392Z,6.57
2019-03-13T15:38:47.295Z,3.50
2019-03-13T15:41:16.930Z,7.10
2019-03-13T15:43:46.628Z,7.40
2019-03-13T15:46:16.189Z,4.07
2019-03-13T15:48:45.755Z,7.10
2019-03-13T15:51:15.563Z,7.00
2019-03-13T15:53:45.146Z,8.43
2019-03-13T15:56:15.036Z,5.37
2019-03-13T15:58:44.613Z,5.77
2019-03-13T16:01:14.132Z,4.77
2019-03-13T16:03:43.655Z,5.97
2019-03-13T16:06:13.227Z,5.97
2019-03-13T16:08:43.101Z,6.20
2019-03-13T16:11:13.850Z,4.13
2019-03-13T16:13:43.348Z,4.97
2019-03-13T16:16:12.864Z,6.73
2019-03-13T16:18:42.407Z,5.37
2019-03-13T16:21:11.882Z,4.20
2019-03-13T16:23:41.459Z,5.37
2019-03-13T16:26:11.319Z,8.00
2019-03-13T16:28:40.778Z,4.80
2019-03-13T16:31:11.212Z,6.40
2019-03-13T16:33:40.747Z,6.00
2019-03-13T16:36:10.496Z,4.10
2019-03-13T16:38:40.047Z,7.53
2019-03-13T16:41:09.656Z,4.60
2019-03-13T16:43:39.193Z,3.90
2019-03-13T16:46:08.800Z,5.60
2019-03-13T16:48:38.373Z,4.10
2019-03-13T16:51:07.826Z,4.63
2019-03-13T16:53:37.379Z,4.47
2019-03-13T16:56:06.836Z,7.30
2019-03-13T16:58:36.336Z,6.37
2019-03-13T17:01:05.902Z,6.40
2019-03-13T17:03:35.495Z,7.60
2019-03-13T17:06:05.205Z,5.07
2019-03-13T17:08:34.836Z,4.63
2019-03-13T17:11:04.420Z,7.13
2019-03-13T17:13:34.264Z,4.67
2019-03-13T17:16:04.997Z,4.43
2019-03-13T17:19:01.169Z,7.57
2019-03-13T17:21:31.153Z,4.37
2019-03-13T17:24:00.648Z,7.50
2019-03-13T17:26:30.126Z,6.50
2019-03-13T17:28:59.663Z,7.93
2019-03-13T17:31:29.136Z,8.57
2019-03-13T17:33:58.700Z,6.90
2019-03-13T17:36:28.212Z,4.87
2019-03-13T17:38:57.865Z,7.00
2019-03-13T17:41:27.539Z,5.07
2019-03-13T17:43:57.072Z,3.63
2019-03-13T17:46:26.639Z,2.67
2019-03-13T17:48:56.143Z,5.33
2019-03-13T17:51:25.802Z,4.17
2019-03-13T17:53:55.356Z,3.27
2019-03-13T17:56:24.916Z,4.87
2019-03-13T17:58:54.418Z,3.37
2019-03-13T18:01:24.064Z,3.67
2019-03-13T18:03:53.580Z,4.73
2019-03-13T18:06:23.135Z,4.37
2019-03-13T18:08:52.662Z,2.80
2019-03-13T18:11:22.193Z,3.03
2019-03-13T18:13:51.673Z,3.60
2019-03-13T18:16:21.177Z,3.13
2019-03-13T18:18:50.676Z,5.47
2019-03-13T18:21:20.210Z,2.43
2019-03-13T18:23:49.752Z,3.43
2019-03-13T18:26:19.374Z,1.83
2019-03-13T18:28:49.095Z,4.43
2019-03-13T18:31:18.663Z,1.53
2019-03-13T18:33:48.529Z,3.10
2019-03-13T18:36:18.069Z,4.20
2019-03-13T18:38:47.516Z,3.20
2019-03-13T18:41:17.082Z,1.40
2019-03-13T18:43:46.629Z,1.27
2019-03-13T18:46:16.173Z,2.43
2019-03-13T18:48:45.734Z,1.03
2019-03-13T18:51:15.316Z,0.40
2019-03-13T18:53:44.817Z,0.20
2019-03-13T18:56:14.352Z,0.83
2019-03-13T18:58:43.936Z,0.80
2019-03-13T19:01:13.620Z,1.50
2019-03-13T19:03:43.251Z,0.37
2019-03-13T19:06:12.900Z,1.13
2019-03-13T19:08:42.832Z,0.40
2019-03-13T19:11:12.848Z,5.10
2019-03-13T19:13:42.623Z,1.43
2019-03-13T19:16:12.438Z,0.80
2019-03-13T19:18:42.021Z,1.10
2019-03-13T19:21:11.614Z,1.37
2019-03-13T19:23:41.219Z,1.20
2019-03-13T19:26:11.212Z,0.30
2019-03-13T19:28:40.800Z,1.47
2019-03-13T19:31:10.353Z,0.40
2019-03-13T19:33:39.897Z,0.50
2019-03-13T19:36:09.356Z,1.50
2019-03-13T19:38:41.096Z,0.73
2019-03-13T19:41:10.108Z,2.30
2019-03-13T19:43:39.648Z,4.90
2019-03-13T19:46:09.625Z,2.43
2019-03-13T19:48:39.190Z,1.57
2019-03-13T19:51:08.736Z,1.47
2019-03-13T19:53:41.927Z,0.80
2019-03-13T19:56:10.658Z,1.17
2019-03-13T19:58:40.140Z,1.87
2019-03-13T20:01:09.668Z,2.03
2019-03-13T20:03:40.144Z,2.10
2019-03-13T20:06:09.729Z,1.70
2019-03-13T20:11:32.587Z,2.30
2019-03-13T20:14:02.134Z,3.50
2019-03-13T20:16:31.754Z,2.27
2019-03-13T20:19:01.337Z,1.80
2019-03-13T20:21:31.330Z,3.07
2019-03-13T20:24:01.003Z,4.27
2019-03-13T20:26:30.580Z,3.93
2019-03-13T20:29:00.129Z,2.40
2019-03-13T20:31:29.709Z,2.30
2019-03-13T20:33:59.206Z,1.10
2019-03-13T20:36:28.739Z,1.77
2019-03-13T20:38:58.317Z,0.97
2019-03-13T20:41:27.853Z,2.07
2019-03-13T20:43:57.434Z,1.50
2019-03-13T20:46:26.952Z,1.47
2019-03-13T20:48:56.494Z,1.80
2019-03-13T20:51:26.168Z,1.30
2019-03-13T20:54:59.407Z,1.93
2019-03-13T20:57:29.011Z,0.63
2019-03-13T20:59:58.589Z,5.13
2019-03-13T21:02:28.195Z,0.97
2019-03-13T21:04:57.799Z,1.70
2019-03-13T21:07:27.365Z,3.00
2019-03-13T21:09:56.896Z,2.77
2019-03-13T21:12:26.480Z,1.47
2019-03-13T21:14:56.167Z,2.17
2019-03-13T21:17:25.683Z,2.37
2019-03-13T21:19:55.242Z,3.13
2019-03-13T21:22:24.842Z,3.20
2019-03-13T21:24:54.393Z,1.80
2019-03-13T21:27:23.981Z,3.63
2019-03-13T21:29:53.563Z,2.10
2019-03-13T21:32:23.153Z,4.30
2019-03-13T21:34:52.771Z,2.80
2019-03-13T21:37:22.331Z,3.27
2019-03-13T21:39:51.924Z,1.93
2019-03-13T21:42:21.859Z,2.80
2019-03-13T21:44:52.696Z,4.20
2019-03-13T21:47:22.347Z,4.53
2019-03-13T21:49:51.947Z,3.13
2019-03-13T21:52:21.846Z,3.13
2019-03-13T21:54:52.282Z,4.43
2019-03-13T21:57:21.833Z,2.93
2019-03-13T21:59:51.604Z,2.93
2019-03-13T22:02:32.184Z,3.13
2019-03-13T22:04:52.412Z,1.93
2019-03-13T22:07:22.018Z,3.17
2019-03-13T22:09:51.555Z,3.00
2019-03-13T22:12:21.167Z,1.90
2019-03-13T22:14:53.461Z,3.37
2019-03-13T22:17:23.051Z,1.80
2019-03-13T22:19:52.662Z,1.57
2019-03-13T22:22:22.222Z,2.73
2019-03-13T22:24:51.837Z,4.37
2019-03-13T22:27:21.412Z,5.23
2019-03-13T22:29:50.995Z,4.10
2019-03-13T22:32:20.594Z,2.63
2019-03-13T22:34:57.120Z,1.97
2019-03-13T22:37:26.841Z,4.27
2019-03-13T22:39:56.440Z,3.47
2019-03-13T22:42:30.818Z,6.23
2019-03-13T22:45:00.398Z,3.10
2019-03-13T22:47:42.163Z,3.23
2019-03-13T22:50:01.171Z,1.87
2019-03-13T22:52:30.735Z,4.30
2019-03-13T22:55:00.694Z,4.50
2019-03-13T22:57:30.302Z,2.50
2019-03-13T22:59:59.944Z,2.27
2019-03-13T23:02:29.508Z,3.23
2019-03-13T23:04:59.396Z,2.23
2019-03-13T23:07:28.973Z,5.40
2019-03-13T23:09:58.533Z,2.00
2019-03-13T23:12:30.317Z,2.57
2019-03-13T23:14:59.563Z,1.33
2019-03-13T23:17:29.174Z,2.43
2019-03-13T23:19:59.882Z,2.60
2019-03-13T23:22:29.491Z,0.83
2019-03-13T23:24:59.628Z,5.47
2019-03-13T23:27:29.224Z,3.07
2019-03-13T23:29:58.840Z,4.43
2019-03-13T23:32:28.431Z,3.03
2019-03-13T23:34:58.035Z,3.70
2019-03-13T23:37:27.600Z,3.90
2019-03-13T23:39:57.212Z,4.03
2019-03-13T23:42:26.833Z,2.57
2019-03-13T23:44:56.420Z,2.80
2019-03-13T23:47:26.815Z,4.50
2019-03-13T23:49:56.447Z,2.97
2019-03-13T23:52:26.093Z,6.10
2019-03-13T23:54:55.662Z,6.33
2019-03-13T23:57:25.394Z,2.97
2019-03-13T23:59:56.233Z,5.20
